Time;durP1;ratioP1;P1;durP2;ratioP2;P2;SDS_P1;SDS_P2;PMS_P1;PMS_P2;Temp;Humidity;BMP_temperature;BMP_pressure;BME280_temperature;BME280_humidity;BME280_pressure;Samples;Min_cycle;Max_cycle;Signal;HPM_P1;HPM_P2
2021/08/04 00:00:51;;;;;;;14.27;13.30;;;16.80;99.90;;;;;;5077244;28;20880;-69
2021/08/04 00:09:49;;;;;;;14.73;13.93;;;16.80;99.90;;;;;;5019424;28;20473;-68
2021/08/04 00:13:01;;;;;;;15.50;14.47;;;16.80;99.90;;;;;;5078150;28;20944;-68
2021/08/04 00:19:29;;;;;;;13.90;12.90;;;16.80;99.90;;;;;;5039126;28;20857;-69
2021/08/04 00:22:27;;;;;;;15.37;14.50;;;16.90;99.90;;;;;;5052873;28;20470;-68
2021/08/04 00:25:16;;;;;;;15.13;14.27;;;16.90;99.90;;;;;;5076203;28;20485;-68
2021/08/04 00:34:34;;;;;;;14.50;13.80;;;16.80;99.90;;;;;;5061198;28;20470;-69
2021/08/04 00:37:37;;;;;;;14.53;13.63;;;16.70;99.90;;;;;;5067400;28;20447;-69
2021/08/04 00:40:42;;;;;;;16.30;15.07;;;16.60;99.90;;;;;;5005471;28;20493;-69
2021/08/04 00:46:51;;;;;;;15.67;14.57;;;16.40;99.90;;;;;;4969744;28;20518;-70
2021/08/04 00:49:52;;;;;;;15.80;14.80;;;16.30;99.90;;;;;;5019148;28;20942;-70
2021/08/04 00:52:43;;;;;;;14.43;13.27;;;16.30;99.90;;;;;;5046961;28;20454;-70
2021/08/04 00:55:33;;;;;;;15.50;14.57;;;16.20;99.90;;;;;;5047289;28;20466;-70
2021/08/04 01:02:14;;;;;;;13.90;13.00;;;16.00;99.90;;;;;;5027935;28;20982;-70
2021/08/04 01:05:13;;;;;;;13.67;12.57;;;15.90;99.90;;;;;;5050028;28;20883;-70
2021/08/04 01:08:10;;;;;;;12.90;12.10;;;15.70;99.90;;;;;;5055753;28;20795;-70
2021/08/04 01:14:44;;;;;;;12.80;11.90;;;15.60;99.90;;;;;;5109480;27;20527;-71
2021/08/04 01:17:31;;;;;;;12.83;11.83;;;15.50;99.90;;;;;;5097164;28;20442;-70
2021/08/04 01:23:27;;;;;;;11.73;10.97;;;15.40;99.90;;;;;;5071200;28;20474;-70
2021/08/04 01:26:10;;;;;;;11.10;10.20;;;15.20;99.90;;;;;;5078457;28;21036;-70
2021/08/04 01:28:48;;;;;;;12.03;11.03;;;15.10;99.90;;;;;;5072264;28;20448;-70
2021/08/04 01:31:27;;;;;;;10.80;10.10;;;15.00;99.90;;;;;;5077659;28;20473;-70
2021/08/04 01:34:07;;;;;;;12.73;11.87;;;15.00;99.90;;;;;;5076820;28;20823;-71
2021/08/04 01:36:35;;;;;;;10.80;9.90;;;14.90;99.90;;;;;;5070019;28;20447;-70
2021/08/04 01:39:05;;;;;;;10.33;9.63;;;14.80;99.90;;;;;;5076561;28;20533;-71
2021/08/04 01:41:34;;;;;;;12.33;11.30;;;14.80;99.90;;;;;;5082538;28;20489;-71
2021/08/04 01:44:09;;;;;;;12.10;11.10;;;14.70;99.90;;;;;;5080036;28;20448;-73
2021/08/04 01:46:42;;;;;;;11.60;10.70;;;14.70;99.90;;;;;;5081280;28;20449;-72
2021/08/04 01:51:49;;;;;;;11.97;11.07;;;14.60;99.90;;;;;;5041124;28;20466;-70
2021/08/04 01:54:19;;;;;;;12.80;11.67;;;14.60;99.90;;;;;;5049086;28;20925;-71
2021/08/04 01:56:59;;;;;;;12.00;10.87;;;14.50;99.90;;;;;;5049320;28;20452;-70
2021/08/04 01:59:27;;;;;;;8.97;8.27;;;14.50;99.90;;;;;;5030119;28;20877;-70
2021/08/04 02:02:17;;;;;;;10.23;9.30;;;14.40;99.90;;;;;;5030526;28;20511;-70
2021/08/04 02:04:54;;;;;;;10.20;9.10;;;14.40;99.90;;;;;;5032400;28;20540;-71
2021/08/04 02:07:48;;;;;;;9.43;8.67;;;14.30;99.90;;;;;;5028647;28;20523;-70
2021/08/04 02:10:36;;;;;;;9.53;8.63;;;14.30;99.90;;;;;;5038940;28;20460;-70
2021/08/04 02:13:27;;;;;;;11.63;8.67;;;14.30;99.90;;;;;;5048131;28;20523;-70
2021/08/04 02:16:09;;;;;;;10.27;9.33;;;14.20;99.90;;;;;;5048458;28;21096;-70
2021/08/04 02:19:04;;;;;;;11.97;10.53;;;14.20;99.90;;;;;;5048415;28;20455;-69
2021/08/04 02:21:38;;;;;;;11.60;10.50;;;14.30;99.90;;;;;;5047845;28;20472;-70
2021/08/04 02:24:27;;;;;;;13.17;11.30;;;14.20;99.90;;;;;;5041162;28;20447;-70
2021/08/04 02:27:06;;;;;;;11.40;10.10;;;14.20;99.90;;;;;;5034916;28;20449;-70
2021/08/04 02:29:44;;;;;;;10.83;9.93;;;14.10;99.90;;;;;;5034683;28;20512;-70
2021/08/04 02:32:20;;;;;;;13.13;11.83;;;14.00;99.90;;;;;;5034502;28;20446;-69
2021/08/04 02:34:59;;;;;;;10.80;9.83;;;14.00;99.90;;;;;;5035043;28;20455;-69
2021/08/04 02:37:41;;;;;;;17.17;11.23;;;13.90;99.90;;;;;;5034949;28;20456;-69
2021/08/04 02:40:37;;;;;;;13.37;11.57;;;13.90;99.90;;;;;;5034416;28;20472;-69
2021/08/04 02:43:38;;;;;;;11.70;10.60;;;13.80;99.90;;;;;;5027223;28;20568;-70
2021/08/04 02:46:51;;;;;;;13.57;12.10;;;13.80;99.90;;;;;;4967658;28;20480;-71
2021/08/04 02:49:36;;;;;;;10.60;9.50;;;13.70;99.90;;;;;;4949863;28;20989;-70
2021/08/04 02:52:26;;;;;;;15.17;12.30;;;13.70;99.90;;;;;;5013692;28;20542;-69
2021/08/04 02:55:45;;;;;;;11.50;10.30;;;13.60;99.90;;;;;;5017953;28;20522;-70
2021/08/04 02:58:37;;;;;;;12.07;10.00;;;13.60;99.90;;;;;;4963782;28;20456;-69
2021/08/04 03:01:25;;;;;;;13.97;12.53;;;13.60;99.90;;;;;;4951398;28;20578;-70
2021/08/04 03:04:40;;;;;;;11.57;10.37;;;13.60;99.90;;;;;;5028790;28;20535;-70
2021/08/04 03:07:42;;;;;;;14.20;10.47;;;13.50;99.90;;;;;;5022446;28;20479;-70
2021/08/04 03:10:21;;;;;;;11.70;10.53;;;13.50;99.90;;;;;;5033494;28;21032;-70
2021/08/04 03:13:29;;;;;;;16.00;12.50;;;13.40;99.90;;;;;;5020246;28;20450;-70
2021/08/04 03:16:36;;;;;;;15.33;12.20;;;13.40;99.90;;;;;;5024171;28;20972;-70
2021/08/04 03:19:20;;;;;;;18.87;15.37;;;13.30;99.90;;;;;;5012793;28;20485;-70
2021/08/04 03:22:25;;;;;;;16.90;12.50;;;13.30;99.90;;;;;;5014350;28;21192;-69
2021/08/04 03:25:18;;;;;;;13.93;12.53;;;13.30;99.90;;;;;;5020979;28;20445;-70
2021/08/04 03:31:45;;;;;;;15.27;13.57;;;13.20;99.90;;;;;;4979933;28;20455;-69
2021/08/04 03:37:59;;;;;;;26.30;16.67;;;13.20;99.90;;;;;;4962713;28;20566;-70
2021/08/04 03:44:31;;;;;;;23.30;21.00;;;13.20;99.90;;;;;;4975747;28;20479;-69
2021/08/04 03:54:59;;;;;;;21.00;18.83;;;13.20;99.90;;;;;;5079358;28;20443;-70
2021/08/04 03:57:55;;;;;;;19.77;15.63;;;13.10;99.90;;;;;;4987791;28;20478;-70
2021/08/04 04:00:35;;;;;;;21.27;19.10;;;13.10;99.90;;;;;;5103359;27;20461;-69
2021/08/04 04:03:37;;;;;;;22.93;20.50;;;13.10;99.90;;;;;;5130182;27;20437;-69
2021/08/04 04:06:42;;;;;;;20.50;17.60;;;13.00;99.90;;;;;;5129451;27;20440;-70
2021/08/04 04:09:54;;;;;;;17.30;15.47;;;13.00;99.90;;;;;;5047890;28;20482;-70
2021/08/04 04:12:40;;;;;;;20.67;18.43;;;13.00;99.90;;;;;;5043790;28;20472;-70
2021/08/04 04:15:30;;;;;;;23.33;18.93;;;13.00;99.90;;;;;;5130050;27;20852;-70
2021/08/04 04:21:13;;;;;;;20.93;18.30;;;13.00;99.90;;;;;;5120344;27;20448;-70
2021/08/04 04:24:08;;;;;;;21.50;19.20;;;13.00;99.90;;;;;;5122391;28;20437;-70
2021/08/04 04:27:27;;;;;;;23.67;20.77;;;13.10;99.90;;;;;;5125093;28;20527;-69
2021/08/04 04:36:37;;;;;;;23.17;20.67;;;13.40;99.90;;;;;;5078219;28;20442;-69
2021/08/04 04:39:08;;;;;;;26.73;21.97;;;13.60;99.90;;;;;;5065347;28;20546;-70
2021/08/04 04:41:34;;;;;;;30.63;24.20;;;13.70;99.90;;;;;;5942859;22;21172;-68
2021/08/04 04:44:01;;;;;;;26.83;22.30;;;13.80;99.90;;;;;;5086968;28;20461;-68
2021/08/04 04:46:28;;;;;;;27.23;24.33;;;13.90;99.90;;;;;;5088028;28;20442;-69
2021/08/04 04:49:06;;;;;;;24.93;21.80;;;14.00;99.90;;;;;;5072440;28;21021;-69
2021/08/04 04:51:33;;;;;;;24.37;21.87;;;14.20;99.90;;;;;;5067922;28;20430;-69
2021/08/04 04:54:00;;;;;;;24.73;21.87;;;14.30;99.90;;;;;;5075362;28;20446;-70
2021/08/04 04:56:28;;;;;;;21.67;19.37;;;14.50;99.90;;;;;;5076601;28;20840;-70
2021/08/04 04:58:55;;;;;;;24.63;21.60;;;14.60;99.90;;;;;;5067989;28;20443;-69
2021/08/04 05:01:22;;;;;;;23.17;20.70;;;14.80;99.90;;;;;;5070895;28;20797;-69
2021/08/04 05:03:48;;;;;;;23.97;21.47;;;15.00;99.90;;;;;;5062984;28;20453;-69
2021/08/04 05:06:15;;;;;;;23.40;18.87;;;15.10;99.90;;;;;;5061426;28;20443;-69
2021/08/04 05:08:42;;;;;;;23.90;21.47;;;15.20;99.90;;;;;;5067545;28;20490;-70
2021/08/04 05:11:09;;;;;;;20.40;18.60;;;15.30;99.90;;;;;;5073359;28;20806;-69
2021/08/04 05:13:38;;;;;;;22.10;19.97;;;15.40;99.90;;;;;;5062967;28;20464;-69
2021/08/04 05:16:05;;;;;;;21.47;19.47;;;15.40;99.90;;;;;;5054693;28;20444;-69
2021/08/04 05:18:33;;;;;;;19.63;17.63;;;15.40;99.90;;;;;;5054159;28;20455;-69
2021/08/04 05:21:09;;;;;;;27.27;19.70;;;15.40;99.90;;;;;;5070037;28;20450;-69
2021/08/04 05:23:39;;;;;;;22.77;20.47;;;15.40;99.90;;;;;;5073645;28;20546;-69
2021/08/04 05:26:06;;;;;;;19.40;17.47;;;15.40;99.90;;;;;;5073685;28;20451;-69
2021/08/04 05:28:37;;;;;;;20.40;18.67;;;15.50;99.90;;;;;;5073970;28;20443;-69
2021/08/04 05:31:04;;;;;;;22.43;20.23;;;15.50;99.90;;;;;;5073495;28;20451;-69
2021/08/04 05:33:32;;;;;;;20.67;18.67;;;15.50;99.90;;;;;;5073323;28;20470;-69
2021/08/04 05:35:59;;;;;;;19.83;17.90;;;15.50;99.90;;;;;;5073512;28;20443;-68
2021/08/04 05:38:26;;;;;;;20.10;18.20;;;15.60;99.90;;;;;;5073824;28;20454;-68
2021/08/04 05:40:56;;;;;;;19.50;17.80;;;15.70;99.90;;;;;;5073511;28;20446;-69
2021/08/04 05:43:25;;;;;;;21.10;18.00;;;15.80;99.90;;;;;;5073469;28;20830;-69
2021/08/04 05:45:56;;;;;;;20.67;17.90;;;15.80;99.90;;;;;;5073467;28;20493;-69
2021/08/04 05:48:23;;;;;;;19.83;17.47;;;15.90;99.90;;;;;;5073415;28;20465;-69
2021/08/04 05:50:50;;;;;;;21.00;18.93;;;15.90;99.90;;;;;;5073418;28;20483;-69
2021/08/04 05:53:17;;;;;;;18.03;16.43;;;16.00;99.90;;;;;;5072861;28;20471;-69
2021/08/04 05:55:45;;;;;;;19.50;17.70;;;16.10;99.90;;;;;;5073201;28;20470;-69
2021/08/04 05:58:12;;;;;;;19.47;17.53;;;16.20;99.90;;;;;;5073256;28;20448;-69
2021/08/04 06:00:39;;;;;;;19.90;18.10;;;16.40;99.90;;;;;;5073217;28;20435;-69
2021/08/04 06:03:07;;;;;;;20.60;18.40;;;16.40;99.90;;;;;;5072748;28;20486;-69
2021/08/04 06:05:37;;;;;;;20.47;18.67;;;16.50;99.90;;;;;;5073078;28;20443;-69
2021/08/04 06:08:05;;;;;;;19.80;18.10;;;16.50;99.90;;;;;;5073227;28;20916;-69
2021/08/04 06:10:32;;;;;;;19.63;17.93;;;16.70;99.90;;;;;;5073187;28;20999;-68
2021/08/04 06:12:59;;;;;;;18.93;17.23;;;16.80;99.90;;;;;;5071921;28;20456;-68
2021/08/04 06:15:26;;;;;;;19.70;18.10;;;16.90;99.90;;;;;;5072933;28;20478;-69
2021/08/04 06:17:53;;;;;;;20.47;18.77;;;17.10;99.90;;;;;;5073037;28;20443;-70
2021/08/04 06:20:25;;;;;;;21.60;20.00;;;17.30;99.90;;;;;;5072936;28;20443;-69
2021/08/04 06:22:52;;;;;;;21.13;19.50;;;17.50;99.90;;;;;;5072297;28;20463;-70
2021/08/04 06:25:22;;;;;;;24.80;22.50;;;17.60;99.90;;;;;;5072558;28;20808;-70
2021/08/04 06:27:52;;;;;;;25.40;22.77;;;17.70;99.90;;;;;;5072383;28;20443;-69
2021/08/04 06:30:20;;;;;;;25.30;23.47;;;17.90;99.90;;;;;;5072665;28;20478;-69
2021/08/04 06:32:58;;;;;;;26.40;24.30;;;17.90;99.90;;;;;;5072396;28;20467;-69
2021/08/04 06:35:27;;;;;;;24.60;23.07;;;18.10;99.90;;;;;;5072547;28;20439;-69
2021/08/04 06:37:56;;;;;;;24.80;22.80;;;18.10;99.90;;;;;;5072522;28;20447;-69
2021/08/04 06:40:24;;;;;;;26.47;24.47;;;18.20;99.90;;;;;;5072372;28;20442;-69
2021/08/04 06:42:54;;;;;;;26.43;24.47;;;18.30;99.90;;;;;;5071699;28;20478;-69
2021/08/04 06:45:25;;;;;;;26.30;24.47;;;18.40;99.90;;;;;;5071522;28;20479;-70
2021/08/04 06:47:52;;;;;;;26.93;24.77;;;18.50;99.90;;;;;;5072082;28;20534;-69
2021/08/04 06:50:19;;;;;;;26.47;24.77;;;18.60;99.90;;;;;;5072074;28;20481;-69
2021/08/04 06:52:50;;;;;;;27.30;25.27;;;18.80;99.90;;;;;;5072230;28;20524;-69
2021/08/04 06:55:20;;;;;;;28.17;26.17;;;18.90;99.90;;;;;;5072403;28;20510;-69
2021/08/04 06:57:50;;;;;;;27.80;25.90;;;19.00;99.90;;;;;;5072435;28;20447;-69
2021/08/04 07:00:22;;;;;;;26.13;24.63;;;19.10;99.90;;;;;;5072243;28;20454;-69
2021/08/04 07:02:52;;;;;;;27.00;24.90;;;19.20;99.90;;;;;;5072114;28;20474;-69
2021/08/04 07:05:22;;;;;;;26.90;25.10;;;19.40;99.90;;;;;;5072038;28;20443;-69
2021/08/04 07:07:50;;;;;;;28.17;26.07;;;19.70;99.90;;;;;;5072133;28;20440;-70
2021/08/04 07:10:23;;;;;;;28.13;26.27;;;19.80;99.90;;;;;;5071984;28;20478;-70
2021/08/04 07:12:56;;;;;;;30.27;28.27;;;20.00;99.90;;;;;;5071740;28;20470;-70
2021/08/04 07:15:23;;;;;;;29.73;27.53;;;20.10;99.90;;;;;;5072065;28;20447;-70
2021/08/04 07:17:51;;;;;;;28.73;26.70;;;20.10;99.90;;;;;;5064710;28;20501;-70
2021/08/04 07:20:20;;;;;;;32.37;30.07;;;20.10;99.90;;;;;;5062970;28;20450;-69
2021/08/04 07:22:48;;;;;;;29.07;27.27;;;20.00;99.90;;;;;;5058719;28;20464;-70
2021/08/04 07:25:17;;;;;;;30.10;27.90;;;20.00;99.90;;;;;;5069230;28;20446;-69
2021/08/04 07:27:44;;;;;;;30.20;28.10;;;19.90;99.90;;;;;;5063909;28;20435;-69
2021/08/04 07:30:12;;;;;;;30.80;28.87;;;19.70;99.90;;;;;;5064327;28;20486;-69
2021/08/04 07:32:39;;;;;;;34.50;31.80;;;19.50;99.90;;;;;;5062292;28;20464;-69
2021/08/04 07:35:07;;;;;;;33.30;30.70;;;19.30;99.90;;;;;;5063457;28;20452;-69
2021/08/04 07:37:34;;;;;;;33.53;30.40;;;19.20;99.90;;;;;;5051555;28;20456;-70
2021/08/04 07:40:01;;;;;;;28.70;26.73;;;19.30;99.90;;;;;;5059856;28;20450;-69
2021/08/04 07:42:29;;;;;;;30.23;28.23;;;19.20;99.90;;;;;;5062930;28;20471;-70
2021/08/04 07:44:56;;;;;;;29.87;27.87;;;19.30;99.90;;;;;;5062255;28;20460;-70
2021/08/04 07:47:23;;;;;;;30.30;28.20;;;19.30;99.90;;;;;;5054011;28;20456;-69
2021/08/04 07:49:50;;;;;;;28.63;26.03;;;19.30;99.90;;;;;;5069024;28;20479;-69
2021/08/04 07:52:17;;;;;;;30.23;28.33;;;19.40;99.90;;;;;;5068389;28;20530;-68
2021/08/04 07:54:44;;;;;;;29.80;27.37;;;19.40;99.90;;;;;;5068757;28;20444;-69
2021/08/04 07:57:11;;;;;;;29.30;27.20;;;19.40;99.90;;;;;;5069562;28;20828;-69
2021/08/04 07:59:39;;;;;;;28.23;26.13;;;19.50;99.90;;;;;;5069980;28;20447;-69
2021/08/04 08:02:06;;;;;;;31.30;28.97;;;19.50;99.90;;;;;;5069691;28;20631;-69
2021/08/04 08:04:33;;;;;;;30.37;28.17;;;19.50;99.90;;;;;;5070290;28;20443;-69
2021/08/04 08:06:59;;;;;;;29.90;27.80;;;19.40;99.90;;;;;;5070952;28;20439;-69
2021/08/04 08:09:26;;;;;;;30.83;28.23;;;19.50;99.90;;;;;;5071089;28;20439;-69
2021/08/04 08:11:55;;;;;;;29.67;27.37;;;19.60;99.90;;;;;;5070842;28;20469;-69
2021/08/04 08:14:22;;;;;;;29.77;27.40;;;19.70;99.90;;;;;;5071171;28;20660;-69
2021/08/04 08:16:50;;;;;;;31.63;29.00;;;19.80;99.90;;;;;;5071082;28;20450;-69
2021/08/04 08:19:17;;;;;;;27.30;25.50;;;19.80;99.90;;;;;;5071053;28;20439;-68
2021/08/04 08:21:44;;;;;;;28.80;27.03;;;20.00;99.90;;;;;;5070571;28;20474;-69
2021/08/04 08:24:11;;;;;;;31.20;28.97;;;20.10;99.90;;;;;;5071086;28;20530;-68
2021/08/04 08:26:38;;;;;;;30.93;29.00;;;20.20;99.90;;;;;;5070827;28;20447;-69
2021/08/04 08:29:06;;;;;;;29.90;27.70;;;20.40;99.90;;;;;;5071075;28;20477;-69
2021/08/04 08:31:34;;;;;;;30.43;28.23;;;20.40;99.90;;;;;;5070656;28;20483;-68
2021/08/04 08:34:03;;;;;;;29.17;27.27;;;20.50;99.90;;;;;;5070949;28;20450;-68
2021/08/04 08:36:31;;;;;;;30.30;28.30;;;20.50;99.90;;;;;;5073385;28;20504;-69
2021/08/04 08:38:59;;;;;;;30.20;27.80;;;20.50;99.90;;;;;;5074539;28;20443;-68
2021/08/04 08:41:27;;;;;;;28.17;26.47;;;20.70;99.90;;;;;;5074160;28;20443;-69
2021/08/04 08:43:54;;;;;;;28.37;26.47;;;20.90;99.90;;;;;;5074369;28;20455;-69
2021/08/04 08:46:21;;;;;;;28.37;26.57;;;21.00;99.90;;;;;;5074300;28;20443;-68
2021/08/04 08:48:49;;;;;;;28.43;26.47;;;21.10;99.90;;;;;;5074530;28;20439;-68
2021/08/04 08:51:18;;;;;;;28.80;26.80;;;21.60;99.90;;;;;;5074256;28;20853;-69
2021/08/04 08:53:46;;;;;;;28.97;27.03;;;21.70;99.90;;;;;;5074131;28;20474;-69
2021/08/04 08:56:14;;;;;;;28.80;26.77;;;21.90;99.90;;;;;;5074265;28;20435;-69
2021/08/04 08:58:41;;;;;;;29.47;27.23;;;22.00;99.90;;;;;;5074209;28;20458;-69
2021/08/04 09:01:08;;;;;;;28.63;26.47;;;22.20;99.90;;;;;;5074112;28;20439;-69
2021/08/04 09:03:35;;;;;;;27.70;25.60;;;22.10;99.90;;;;;;5074027;28;20482;-69
2021/08/04 09:06:03;;;;;;;29.03;27.20;;;22.30;99.90;;;;;;5074081;28;21145;-69
2021/08/04 09:08:33;;;;;;;28.67;26.67;;;22.50;99.90;;;;;;5074089;28;20504;-69
2021/08/04 09:11:11;;;;;;;28.37;26.57;;;22.40;99.90;;;;;;5073947;28;20550;-69
2021/08/04 09:13:38;;;;;;;25.80;24.30;;;22.30;99.90;;;;;;5073764;28;20533;-68
2021/08/04 09:16:07;;;;;;;27.50;25.70;;;22.30;99.90;;;;;;5073964;28;20458;-68
2021/08/04 09:18:42;;;;;;;26.00;24.40;;;22.40;99.90;;;;;;5073946;28;20447;-68
2021/08/04 09:21:09;;;;;;;26.03;24.47;;;22.50;99.90;;;;;;5073691;28;20918;-68
2021/08/04 09:23:44;;;;;;;26.87;24.93;;;22.50;99.90;;;;;;5073530;28;20467;-69
2021/08/04 09:26:12;;;;;;;28.27;26.40;;;22.90;99.90;;;;;;5073856;28;20443;-69
2021/08/04 09:29:03;;;;;;;26.37;24.83;;;22.70;99.90;;;;;;5073707;28;20447;-68
2021/08/04 09:31:48;;;;;;;28.83;26.77;;;22.80;99.90;;;;;;5073360;28;20528;-69
2021/08/04 09:34:34;;;;;;;29.80;27.97;;;23.00;99.90;;;;;;5073657;28;20850;-69
2021/08/04 09:37:07;;;;;;;29.73;27.77;;;23.00;99.40;;;;;;5073553;28;20455;-69
2021/08/04 09:39:36;;;;;;;26.47;24.97;;;23.30;99.10;;;;;;5073598;28;20442;-69
2021/08/04 09:42:03;;;;;;;25.63;23.93;;;23.40;98.80;;;;;;5073227;28;20460;-69
2021/08/04 09:44:31;;;;;;;25.70;24.30;;;23.50;99.30;;;;;;5073199;28;20451;-69
2021/08/04 09:47:11;;;;;;;26.60;24.80;;;23.60;98.80;;;;;;5073136;28;20443;-68
2021/08/04 09:49:38;;;;;;;25.70;24.30;;;23.80;97.20;;;;;;5073173;28;20947;-69
2021/08/04 09:52:07;;;;;;;27.00;25.57;;;24.20;95.00;;;;;;5072844;28;20482;-69
2021/08/04 09:54:40;;;;;;;24.93;23.63;;;24.30;94.60;;;;;;5073166;28;20454;-69
2021/08/04 09:57:07;;;;;;;27.50;25.60;;;24.40;94.10;;;;;;5073266;28;20440;-69
2021/08/04 09:59:34;;;;;;;27.27;25.67;;;24.60;92.50;;;;;;5073240;28;20447;-69
2021/08/04 10:02:02;;;;;;;28.70;26.37;;;24.70;91.60;;;;;;5072744;28;20467;-69
2021/08/04 10:04:30;;;;;;;25.23;23.80;;;24.90;90.00;;;;;;5073063;28;20487;-68
2021/08/04 10:07:07;;;;;;;26.93;25.27;;;25.00;88.20;;;;;;5072975;28;20447;-69
2021/08/04 10:09:35;;;;;;;25.17;23.83;;;25.30;85.70;;;;;;5072943;28;20839;-69
2021/08/04 10:12:04;;;;;;;25.00;23.60;;;25.60;84.10;;;;;;5072397;28;20490;-68
2021/08/04 10:14:32;;;;;;;27.30;25.80;;;25.90;83.10;;;;;;5072833;28;20443;-69
2021/08/04 10:16:59;;;;;;;23.47;22.27;;;26.40;79.30;;;;;;5072769;28;20443;-69
2021/08/04 10:19:26;;;;;;;22.50;21.50;;;26.70;75.20;;;;;;5072524;28;20448;-69
2021/08/04 10:21:54;;;;;;;20.90;20.00;;;26.80;73.30;;;;;;5072394;28;20462;-69
2021/08/04 10:24:22;;;;;;;25.43;23.97;;;26.90;74.40;;;;;;5072611;28;20466;-66
2021/08/04 10:26:50;;;;;;;25.30;24.00;;;26.90;70.00;;;;;;5072774;28;20509;-69
2021/08/04 10:29:20;;;;;;;23.80;22.43;;;26.70;68.30;;;;;;5072493;28;20451;-69
2021/08/04 10:31:49;;;;;;;23.67;22.27;;;26.90;68.40;;;;;;5072190;28;20544;-69
2021/08/04 10:34:16;;;;;;;22.17;21.03;;;26.90;70.10;;;;;;5072487;28;20529;-69
2021/08/04 10:36:43;;;;;;;22.70;21.50;;;26.90;70.60;;;;;;5072475;28;20447;-69
2021/08/04 10:39:11;;;;;;;22.87;21.83;;;26.80;67.90;;;;;;5072416;28;20451;-69
2021/08/04 10:41:41;;;;;;;21.40;20.50;;;26.10;67.90;;;;;;5072048;28;20446;-69
2021/08/04 10:44:21;;;;;;;22.80;21.63;;;25.90;67.30;;;;;;5072177;28;20462;-69
2021/08/04 10:46:49;;;;;;;22.80;21.83;;;26.00;68.70;;;;;;5072522;28;20459;-69
2021/08/04 10:49:22;;;;;;;24.50;23.20;;;26.70;67.60;;;;;;5072211;28;20439;-69
2021/08/04 10:52:21;;;;;;;23.73;22.63;;;27.30;65.60;;;;;;5071725;28;20486;-69
2021/08/04 10:55:12;;;;;;;22.73;21.63;;;27.50;63.80;;;;;;5072167;28;20443;-70
2021/08/04 10:58:15;;;;;;;22.37;21.37;;;27.20;63.90;;;;;;5072865;28;20447;-68
2021/08/04 11:00:42;;;;;;;24.60;23.30;;;27.20;64.40;;;;;;5073502;28;20467;-67
2021/08/04 11:03:57;;;;;;;25.70;24.03;;;27.40;63.30;;;;;;5072600;28;20834;-68
2021/08/04 11:06:26;;;;;;;24.03;22.57;;;27.60;61.10;;;;;;5072277;28;20454;-66
2021/08/04 11:09:28;;;;;;;21.90;20.90;;;27.90;59.80;;;;;;5072415;28;20440;-67
2021/08/04 11:11:57;;;;;;;24.03;22.83;;;27.70;60.30;;;;;;5071443;28;20490;-68
2021/08/04 11:14:37;;;;;;;23.87;22.77;;;28.00;60.00;;;;;;5072646;28;20456;-66
2021/08/04 11:17:04;;;;;;;24.33;23.23;;;28.00;58.70;;;;;;5072510;28;20479;-69
2021/08/04 11:19:34;;;;;;;23.70;22.60;;;27.70;59.10;;;;;;5072628;28;20451;-67
2021/08/04 11:22:17;;;;;;;25.00;23.37;;;27.80;58.50;;;;;;5071938;28;20474;-67
2021/08/04 11:24:54;;;;;;;24.13;22.90;;;28.00;58.00;;;;;;5072332;28;20952;-68
2021/08/04 11:27:20;;;;;;;24.70;23.50;;;28.00;58.10;;;;;;5072169;28;20482;-69
2021/08/04 11:29:48;;;;;;;24.50;23.10;;;27.70;58.40;;;;;;5072234;28;20446;-67
2021/08/04 11:32:18;;;;;;;25.13;23.73;;;27.70;58.90;;;;;;5071887;28;20848;-67
2021/08/04 11:34:44;;;;;;;24.10;22.60;;;27.60;58.90;;;;;;5072221;28;20447;-68
2021/08/04 11:37:11;;;;;;;23.63;22.53;;;27.50;59.80;;;;;;5072364;28;20450;-67
2021/08/04 11:39:53;;;;;;;24.90;23.60;;;27.80;59.10;;;;;;5072396;28;20443;-67
2021/08/04 11:42:20;;;;;;;25.60;24.03;;;28.00;58.10;;;;;;5072201;28;20487;-68
2021/08/04 11:44:47;;;;;;;23.00;21.90;;;28.20;57.40;;;;;;5072319;28;20459;-68
2021/08/04 11:47:14;;;;;;;23.40;22.30;;;28.10;58.30;;;;;;5072219;28;20941;-67
2021/08/04 11:49:42;;;;;;;23.43;22.33;;;28.20;57.20;;;;;;5071820;28;20442;-66
2021/08/04 11:52:10;;;;;;;25.13;23.93;;;28.40;58.20;;;;;;5073376;28;20540;-68
2021/08/04 11:54:43;;;;;;;23.87;22.77;;;28.70;56.30;;;;;;5074161;28;20501;-68
2021/08/04 11:57:12;;;;;;;24.07;22.70;;;29.00;55.70;;;;;;5073644;28;20450;-67
2021/08/04 11:59:46;;;;;;;24.47;23.27;;;29.00;54.90;;;;;;5072254;28;20454;-68
2021/08/04 12:02:13;;;;;;;23.47;22.27;;;29.10;53.90;;;;;;5072036;28;20475;-69
2021/08/04 12:04:46;;;;;;;25.23;24.03;;;28.90;54.10;;;;;;5072722;28;20454;-68
2021/08/04 12:07:13;;;;;;;22.90;21.83;;;28.90;53.70;;;;;;5073253;28;20455;-68
2021/08/04 12:09:41;;;;;;;23.73;22.63;;;29.80;53.60;;;;;;5071755;28;20450;-67
2021/08/04 12:12:13;;;;;;;23.57;22.57;;;31.80;50.50;;;;;;5075532;28;20486;-67
2021/08/04 12:14:40;;;;;;;25.03;23.73;;;32.40;47.70;;;;;;5075626;28;20443;-68
2021/08/04 12:17:07;;;;;;;24.97;23.87;;;32.10;46.90;;;;;;5075555;28;20446;-68
2021/08/04 12:19:40;;;;;;;24.00;22.83;;;32.60;46.40;;;;;;5075422;28;20454;-69
2021/08/04 12:22:10;;;;;;;23.53;22.53;;;33.10;44.90;;;;;;5076199;28;20462;-68
2021/08/04 12:24:48;;;;;;;25.90;24.80;;;33.90;44.80;;;;;;5075243;28;20435;-69
2021/08/04 12:27:28;;;;;;;23.40;22.30;;;34.10;42.80;;;;;;5075200;28;20889;-67
2021/08/04 12:30:16;;;;;;;25.60;24.37;;;33.80;42.80;;;;;;5075137;28;20446;-67
2021/08/04 12:32:59;;;;;;;24.77;23.57;;;32.80;44.00;;;;;;5074682;28;20483;-68
2021/08/04 12:35:35;;;;;;;25.40;24.30;;;32.40;43.70;;;;;;5076018;28;20928;-68
2021/08/04 12:38:05;;;;;;;23.97;22.80;;;32.70;44.10;;;;;;5075756;28;20442;-69
2021/08/04 12:40:33;;;;;;;24.57;23.47;;;32.60;44.10;;;;;;5074900;28;20450;-69
2021/08/04 12:43:01;;;;;;;25.20;24.00;;;32.70;43.40;;;;;;5074460;28;20477;-69
2021/08/04 12:45:29;;;;;;;23.07;22.13;;;32.60;43.40;;;;;;5074672;28;20443;-68
2021/08/04 12:47:59;;;;;;;21.33;20.33;;;32.80;42.70;;;;;;5074672;28;20447;-68
2021/08/04 12:50:28;;;;;;;23.03;21.63;;;33.30;42.40;;;;;;5074729;28;20454;-68
2021/08/04 12:52:56;;;;;;;22.70;21.60;;;32.40;41.70;;;;;;5074300;28;20490;-69
2021/08/04 12:55:24;;;;;;;23.50;22.50;;;31.20;43.30;;;;;;5074555;28;20447;-68
2021/08/04 12:58:06;;;;;;;21.70;20.77;;;31.00;43.80;;;;;;5074635;28;20862;-67
2021/08/04 13:00:35;;;;;;;23.70;22.70;;;31.40;44.10;;;;;;5074993;28;20443;-68
2021/08/04 13:03:03;;;;;;;22.13;21.17;;;31.10;44.40;;;;;;5074092;28;20463;-69
2021/08/04 13:05:30;;;;;;;23.40;22.30;;;31.20;45.90;;;;;;5074472;28;20447;-68
2021/08/04 13:07:57;;;;;;;25.30;24.20;;;31.40;44.10;;;;;;5074140;28;20939;-68
2021/08/04 13:10:40;;;;;;;23.77;22.77;;;31.00;43.70;;;;;;5074237;28;20447;-67
2021/08/04 13:13:09;;;;;;;22.30;21.30;;;30.70;45.10;;;;;;5073958;28;20523;-68
2021/08/04 13:15:43;;;;;;;23.30;22.20;;;31.10;44.90;;;;;;5074196;28;20502;-68
2021/08/04 13:18:11;;;;;;;24.50;23.50;;;31.20;44.70;;;;;;5074704;28;20469;-69
2021/08/04 13:20:40;;;;;;;21.83;20.93;;;30.90;44.10;;;;;;5073880;28;20449;-68
2021/08/04 13:23:08;;;;;;;22.43;21.43;;;30.90;44.80;;;;;;5073503;28;20470;-68
2021/08/04 13:25:51;;;;;;;21.83;20.93;;;30.30;46.40;;;;;;5074191;28;20455;-68
2021/08/04 13:28:21;;;;;;;23.13;22.03;;;30.10;48.10;;;;;;5074040;28;20454;-68
2021/08/04 13:31:00;;;;;;;21.37;20.47;;;30.00;48.70;;;;;;5074233;28;20442;-67
2021/08/04 13:33:28;;;;;;;21.63;20.80;;;29.80;48.30;;;;;;5074120;28;20462;-67
2021/08/04 13:35:57;;;;;;;23.23;21.83;;;29.60;48.80;;;;;;5073998;28;21013;-68
2021/08/04 13:38:24;;;;;;;20.73;19.93;;;29.60;48.50;;;;;;5074238;28;20447;-68
2021/08/04 13:40:52;;;;;;;21.07;20.17;;;29.60;48.90;;;;;;5074190;28;20861;-68
2021/08/04 13:43:20;;;;;;;21.50;20.60;;;29.50;50.10;;;;;;5073547;28;20474;-67
2021/08/04 13:45:47;;;;;;;24.30;23.10;;;29.70;49.80;;;;;;5074114;28;20839;-68
2021/08/04 13:48:14;;;;;;;23.50;22.43;;;29.50;49.20;;;;;;5074195;28;20455;-68
2021/08/04 13:50:41;;;;;;;22.10;21.30;;;30.00;49.10;;;;;;5073882;28;20823;-67
2021/08/04 13:53:08;;;;;;;23.77;22.30;;;30.50;48.90;;;;;;5073161;28;20482;-68
2021/08/04 13:55:36;;;;;;;21.30;20.60;;;31.20;47.90;;;;;;5073509;28;20469;-68
2021/08/04 13:58:04;;;;;;;23.67;22.73;;;31.60;47.30;;;;;;5073832;28;20504;-68
2021/08/04 14:00:33;;;;;;;22.80;21.90;;;32.00;46.60;;;;;;5074443;28;20447;-67
2021/08/04 14:03:02;;;;;;;24.00;22.93;;;32.70;46.20;;;;;;5068794;28;20463;-67
2021/08/04 14:05:35;;;;;;;21.50;20.70;;;33.70;44.70;;;;;;5071615;28;20476;-66
2021/08/04 14:08:02;;;;;;;23.40;22.50;;;35.50;43.30;;;;;;5062546;28;20936;-65